Time;durP1;ratioP1;P1;durP2;ratioP2;P2;SDS_P1;SDS_P2;PMS_P1;PMS_P2;Temp;Humidity;BMP_temperature;BMP_pressure;BME280_temperature;BME280_humidity;BME280_pressure;Samples;Min_cycle;Max_cycle;Signal;HPM_P1;HPM_P2
2023/07/10 00:02:35;;;;;;;11.70;8.13;;;;;;;;;;6276998;28;20479;-83
2023/07/10 00:05:35;;;;;;;11.85;7.57;;;;;;;;;;6270724;28;20180;-84
2023/07/10 00:08:35;;;;;;;12.63;7.83;;;;;;;;;;6272891;28;20087;-84
2023/07/10 00:11:36;;;;;;;14.63;8.02;;;;;;;;;;6274104;28;20032;-85
2023/07/10 00:14:36;;;;;;;11.50;8.57;;;;;;;;;;6279361;28;20045;-84
2023/07/10 00:17:37;;;;;;;11.63;8.53;;;;;;;;;;6288882;28;20093;-82
2023/07/10 00:20:37;;;;;;;13.93;9.27;;;;;;;;;;6286610;28;20052;-84
2023/07/10 00:23:37;;;;;;;11.30;8.52;;;;;;;;;;6278638;28;20017;-81
2023/07/10 00:26:37;;;;;;;13.70;8.30;;;;;;;;;;6280220;28;20459;-85
2023/07/10 00:29:38;;;;;;;12.27;8.17;;;;;;;;;;6279827;28;20021;-86
2023/07/10 00:32:38;;;;;;;12.43;8.20;;;;;;;;;;6279426;28;20448;-85
2023/07/10 00:35:39;;;;;;;11.60;8.40;;;;;;;;;;6278023;28;20400;-82
2023/07/10 00:38:39;;;;;;;14.90;7.73;;;;;;;;;;6273379;28;20544;-85
2023/07/10 00:41:40;;;;;;;11.57;8.73;;;;;;;;;;6268312;28;20047;-82
2023/07/10 00:44:51;;;;;;;11.15;8.15;;;;;;;;;;6272113;28;20033;-84
2023/07/10 00:48:02;;;;;;;14.10;9.18;;;;;;;;;;6265035;28;20349;-85
2023/07/10 00:51:05;;;;;;;14.90;9.73;;;;;;;;;;6265713;28;20048;-82
2023/07/10 00:54:13;;;;;;;10.90;7.90;;;;;;;;;;6270938;28;20021;-83
2023/07/10 00:57:15;;;;;;;11.85;8.63;;;;;;;;;;6271089;28;20025;-85
2023/07/10 01:00:17;;;;;;;10.57;7.40;;;;;;;;;;6272151;28;20025;-83
2023/07/10 01:03:17;;;;;;;13.00;8.43;;;;;;;;;;6273179;28;20029;-85
2023/07/10 01:06:22;;;;;;;10.10;7.85;;;;;;;;;;6273740;28;20075;-86
2023/07/10 01:09:23;;;;;;;9.88;7.90;;;;;;;;;;6269578;28;20271;-86
2023/07/10 01:12:24;;;;;;;15.38;9.32;;;;;;;;;;6270816;28;20083;-85
2023/07/10 01:15:24;;;;;;;11.77;8.23;;;;;;;;;;6271084;28;20025;-85
2023/07/10 01:18:24;;;;;;;12.40;9.27;;;;;;;;;;6264288;28;20024;-82
2023/07/10 01:21:30;;;;;;;14.47;8.47;;;;;;;;;;6270386;28;20093;-83
2023/07/10 01:24:30;;;;;;;13.02;8.70;;;;;;;;;;6270428;28;20507;-84
2023/07/10 01:27:30;;;;;;;12.93;8.18;;;;;;;;;;6270259;28;20095;-84
2023/07/10 01:30:33;;;;;;;13.80;8.82;;;;;;;;;;6270695;28;20044;-85
2023/07/10 01:33:43;;;;;;;15.38;8.45;;;;;;;;;;6271261;28;20013;-85
2023/07/10 01:36:44;;;;;;;13.00;8.75;;;;;;;;;;6271049;28;20547;-85
2023/07/10 01:39:48;;;;;;;12.05;7.63;;;;;;;;;;6270264;28;20029;-83
2023/07/10 01:42:48;;;;;;;10.70;8.13;;;;;;;;;;6269674;28;20422;-86
2023/07/10 01:45:49;;;;;;;10.32;7.25;;;;;;;;;;6252880;28;20100;-85
2023/07/10 01:48:51;;;;;;;11.40;7.47;;;;;;;;;;6269964;28;20470;-86
2023/07/10 01:51:52;;;;;;;10.63;6.65;;;;;;;;;;6269588;28;20064;-85
2023/07/10 01:54:52;;;;;;;10.90;7.50;;;;;;;;;;6270924;28;20469;-85
2023/07/10 01:57:52;;;;;;;10.27;7.40;;;;;;;;;;6270584;28;20020;-85
2023/07/10 02:00:53;;;;;;;12.93;8.68;;;;;;;;;;6270190;28;20020;-84
2023/07/10 02:03:53;;;;;;;13.15;7.55;;;;;;;;;;6266316;28;20678;-85
2023/07/10 02:06:54;;;;;;;11.82;7.90;;;;;;;;;;6268965;28;20321;-86
2023/07/10 02:09:55;;;;;;;14.95;7.50;;;;;;;;;;6269316;28;20021;-83
2023/07/10 02:12:55;;;;;;;13.68;8.90;;;;;;;;;;6269883;28;20036;-82
2023/07/10 02:15:59;;;;;;;10.73;7.90;;;;;;;;;;6269507;28;20461;-83
2023/07/10 02:19:00;;;;;;;12.02;8.02;;;;;;;;;;6266344;28;20048;-84
2023/07/10 02:22:00;;;;;;;12.70;8.02;;;;;;;;;;6271865;28;20025;-82
2023/07/10 02:25:00;;;;;;;12.93;7.65;;;;;;;;;;6269060;28;20456;-84
2023/07/10 02:28:01;;;;;;;10.10;7.33;;;;;;;;;;6267540;28;20021;-83
2023/07/10 02:31:04;;;;;;;11.88;8.30;;;;;;;;;;6268342;28;20387;-83
2023/07/10 02:34:05;;;;;;;12.82;8.75;;;;;;;;;;6268033;28;20266;-84
2023/07/10 02:37:05;;;;;;;11.23;7.57;;;;;;;;;;6249018;28;20112;-82
2023/07/10 02:40:05;;;;;;;14.27;8.20;;;;;;;;;;6265683;28;20048;-84
2023/07/10 02:43:06;;;;;;;13.40;9.20;;;;;;;;;;6266695;28;20399;-74
2023/07/10 02:46:06;;;;;;;18.50;9.25;;;;;;;;;;6267331;28;20020;-74
2023/07/10 02:49:06;;;;;;;9.70;7.30;;;;;;;;;;6249802;28;20357;-74
2023/07/10 02:52:07;;;;;;;10.43;7.93;;;;;;;;;;6267433;28;20020;-74
2023/07/10 02:55:07;;;;;;;12.77;7.53;;;;;;;;;;6266927;28;20025;-85
2023/07/10 02:58:07;;;;;;;13.43;7.50;;;;;;;;;;6249713;28;20106;-84
2023/07/10 03:01:07;;;;;;;12.33;7.27;;;;;;;;;;6267290;28;20025;-83
2023/07/10 03:04:08;;;;;;;11.85;8.32;;;;;;;;;;6267065;28;20025;-86
2023/07/10 03:07:08;;;;;;;12.70;7.88;;;;;;;;;;6267144;28;20497;-85
2023/07/10 03:10:09;;;;;;;12.93;6.95;;;;;;;;;;6266589;28;20025;-85
2023/07/10 03:13:09;;;;;;;12.60;7.72;;;;;;;;;;6267728;28;20088;-86
2023/07/10 03:16:11;;;;;;;13.07;7.78;;;;;;;;;;6267405;28;20024;-83
2023/07/10 03:19:11;;;;;;;10.98;7.47;;;;;;;;;;6267080;28;20035;-84
2023/07/10 03:22:12;;;;;;;12.47;7.57;;;;;;;;;;6271331;28;20029;-83
2023/07/10 03:25:12;;;;;;;11.87;7.37;;;;;;;;;;6267557;28;20099;-86
2023/07/10 03:28:12;;;;;;;10.57;6.60;;;;;;;;;;6268609;28;20387;-84
2023/07/10 03:31:12;;;;;;;10.43;7.27;;;;;;;;;;6267738;28;20506;-84
2023/07/10 03:34:13;;;;;;;12.02;7.15;;;;;;;;;;6267324;28;20020;-85
2023/07/10 03:37:14;;;;;;;13.13;8.07;;;;;;;;;;6266939;28;20463;-85
2023/07/10 03:40:14;;;;;;;12.90;6.72;;;;;;;;;;6267564;28;20021;-85
2023/07/10 03:43:15;;;;;;;12.00;7.30;;;;;;;;;;6267181;28;20564;-82
2023/07/10 03:46:16;;;;;;;10.45;6.75;;;;;;;;;;6262791;28;20138;-83
2023/07/10 03:49:17;;;;;;;10.93;6.20;;;;;;;;;;6270684;28;20032;-82
2023/07/10 03:52:18;;;;;;;8.77;5.47;;;;;;;;;;6272212;28;20279;-83
2023/07/10 03:55:18;;;;;;;9.70;6.07;;;;;;;;;;6272347;28;20083;-82
2023/07/10 03:58:21;;;;;;;7.90;5.23;;;;;;;;;;6271774;28;20017;-83
2023/07/10 04:01:21;;;;;;;10.93;6.10;;;;;;;;;;6271486;28;20020;-83
2023/07/10 04:04:22;;;;;;;7.63;5.47;;;;;;;;;;6271553;28;20024;-83
2023/07/10 04:07:22;;;;;;;8.27;5.90;;;;;;;;;;6273251;28;20028;-82
2023/07/10 04:10:22;;;;;;;8.75;5.35;;;;;;;;;;6272684;28;20053;-82
2023/07/10 04:13:23;;;;;;;8.10;5.97;;;;;;;;;;6272236;28;20016;-83
2023/07/10 04:16:25;;;;;;;9.23;6.43;;;;;;;;;;6271240;28;20368;-83
2023/07/10 04:19:25;;;;;;;12.27;6.78;;;;;;;;;;6270650;28;20040;-85
2023/07/10 04:22:25;;;;;;;8.90;6.03;;;;;;;;;;6252968;28;20112;-84
2023/07/10 04:25:26;;;;;;;9.63;6.07;;;;;;;;;;6276483;28;20763;-84
2023/07/10 04:28:26;;;;;;;11.82;5.63;;;;;;;;;;6271410;28;20108;-85
2023/07/10 04:31:26;;;;;;;11.80;6.73;;;;;;;;;;6270595;28;20523;-85
2023/07/10 04:34:27;;;;;;;11.53;6.67;;;;;;;;;;6270838;28;20474;-84
2023/07/10 04:37:27;;;;;;;10.23;6.53;;;;;;;;;;6270934;28;20028;-83
2023/07/10 04:40:27;;;;;;;10.90;6.43;;;;;;;;;;6270734;28;20479;-84
2023/07/10 04:43:28;;;;;;;9.55;6.63;;;;;;;;;;6247123;28;20159;-85
2023/07/10 04:46:28;;;;;;;10.65;7.63;;;;;;;;;;6270144;28;20059;-85
2023/07/10 04:49:29;;;;;;;10.03;6.47;;;;;;;;;;6271320;28;20024;-85
2023/07/10 04:52:29;;;;;;;10.13;6.43;;;;;;;;;;6271660;28;20498;-84
2023/07/10 04:55:29;;;;;;;11.27;7.07;;;;;;;;;;6271441;28;20463;-82
2023/07/10 04:58:43;;;;;;;9.95;6.25;;;;;;;;;;6270600;28;20025;-83
2023/07/10 05:01:44;;;;;;;10.93;7.05;;;;;;;;;;6247591;28;20028;-83
2023/07/10 05:04:44;;;;;;;13.70;7.43;;;;;;;;;;6252026;28;20364;-84
2023/07/10 05:07:44;;;;;;;8.80;7.77;;;;;;;;;;6270416;28;20060;-84
2023/07/10 05:10:44;;;;;;;10.02;7.05;;;;;;;;;;6273379;28;20116;-85
2023/07/10 05:13:44;;;;;;;13.38;7.65;;;;;;;;;;6270225;28;20023;-84
2023/07/10 05:16:45;;;;;;;11.47;7.10;;;;;;;;;;6274184;28;20100;-84
2023/07/10 05:19:45;;;;;;;9.32;6.55;;;;;;;;;;6271148;28;20507;-85
2023/07/10 05:22:45;;;;;;;9.00;6.45;;;;;;;;;;6267381;28;20025;-84
2023/07/10 05:26:00;;;;;;;9.20;6.55;;;;;;;;;;6270721;28;20353;-84
2023/07/10 05:29:00;;;;;;;13.68;6.68;;;;;;;;;;6270529;28;20547;-85
2023/07/10 05:32:01;;;;;;;10.77;6.47;;;;;;;;;;6266552;28;20054;-80
2023/07/10 05:35:02;;;;;;;8.43;6.80;;;;;;;;;;6266214;28;20020;-86
2023/07/10 05:38:02;;;;;;;7.90;5.40;;;;;;;;;;6270827;28;20084;-83
2023/07/10 05:41:03;;;;;;;10.48;5.85;;;;;;;;;;6271203;28;20028;-86
2023/07/10 05:44:06;;;;;;;7.40;5.07;;;;;;;;;;6271444;28;20018;-85
2023/07/10 05:47:06;;;;;;;7.45;4.57;;;;;;;;;;6252822;28;20025;-87
2023/07/10 05:50:06;;;;;;;5.20;3.90;;;;;;;;;;6274630;28;20034;-86
2023/07/10 05:53:06;;;;;;;7.50;4.77;;;;;;;;;;6274016;28;20041;-88
2023/07/10 05:56:07;;;;;;;8.33;5.00;;;;;;;;;;6276844;28;20029;-88
2023/07/10 05:59:10;;;;;;;7.23;4.73;;;;;;;;;;6278657;28;20446;-82
2023/07/10 06:02:13;;;;;;;5.63;3.90;;;;;;;;;;6269322;28;20420;-87
2023/07/10 06:05:14;;;;;;;7.20;4.18;;;;;;;;;;6262833;28;20032;-75
2023/07/10 06:08:14;;;;;;;8.27;4.20;;;;;;;;;;6258989;28;20033;-75
2023/07/10 06:11:15;;;;;;;10.25;4.07;;;;;;;;;;6262217;28;20079;-75
2023/07/10 06:14:15;;;;;;;;;;;;;;;;;;6261973;28;20017;-75
2023/07/10 06:17:17;;;;;;;6.53;3.83;;;;;;;;;;6265526;28;19966;-76
2023/07/10 06:20:18;;;;;;;8.95;4.35;;;;;;;;;;6267821;28;20128;-76
2023/07/10 06:23:18;;;;;;;;;;;;;;;;;;6267524;28;20047;-88
2023/07/10 06:26:18;;;;;;;8.70;4.40;;;;;;;;;;6277429;28;19913;-84
2023/07/10 06:29:18;;;;;;;;;;;;;;;;;;6277720;28;20013;-88
2023/07/10 06:32:22;;;;;;;6.13;4.38;;;;;;;;;;6265315;28;19920;-89
2023/07/10 06:35:22;;;;;;;5.38;3.65;;;;;;;;;;6270704;28;20023;-88
2023/07/10 06:38:22;;;;;;;;;;;;;;;;;;6283668;28;20065;-86
2023/07/10 06:41:22;;;;;;;6.35;3.47;;;;;;;;;;6279984;28;19917;-87
2023/07/10 06:44:22;;;;;;;;;;;;;;;;;;6285329;28;20033;-89
2023/07/10 06:47:23;;;;;;;6.65;4.95;;;;;;;;;;6289997;28;19901;-79
2023/07/10 06:50:23;;;;;;;8.50;3.87;;;;;;;;;;6272075;28;20079;-83
2023/07/10 06:53:24;;;;;;;7.63;3.87;;;;;;;;;;6288075;28;20021;-83
2023/07/10 06:56:24;;;;;;;9.75;3.80;;;;;;;;;;6290601;28;20060;-81
2023/07/10 06:59:24;;;;;;;11.52;4.68;;;;;;;;;;6279074;28;20028;-90
2023/07/10 07:02:24;;;;;;;7.90;3.40;;;;;;;;;;6273959;28;20079;-86
2023/07/10 07:05:26;;;;;;;8.63;3.33;;;;;;;;;;6263560;28;20130;-85
2023/07/10 07:08:26;;;;;;;5.47;3.53;;;;;;;;;;6249967;28;20025;-87
2023/07/10 07:11:27;;;;;;;6.67;3.83;;;;;;;;;;6266184;28;20506;-87
2023/07/10 07:14:27;;;;;;;5.43;3.40;;;;;;;;;;6263363;28;20025;-87
2023/07/10 07:17:27;;;;;;;6.97;3.40;;;;;;;;;;6248853;28;20089;-84
2023/07/10 07:20:27;;;;;;;7.27;3.93;;;;;;;;;;6262256;28;20044;-85
2023/07/10 07:23:28;;;;;;;6.30;3.35;;;;;;;;;;6263047;28;20499;-87
2023/07/10 07:26:28;;;;;;;5.63;3.40;;;;;;;;;;6270859;28;20034;-87
2023/07/10 07:29:28;;;;;;;6.00;3.17;;;;;;;;;;6269649;28;20029;-87
2023/07/10 07:32:28;;;;;;;6.28;3.13;;;;;;;;;;6268599;28;20036;-85
2023/07/10 07:35:29;;;;;;;6.33;3.53;;;;;;;;;;6273051;28;20055;-86
2023/07/10 07:38:29;;;;;;;5.33;3.23;;;;;;;;;;6273334;28;20027;-87
2023/07/10 07:41:31;;;;;;;4.13;3.60;;;;;;;;;;6271731;28;20028;-86
2023/07/10 07:44:32;;;;;;;7.45;4.28;;;;;;;;;;6254785;28;20021;-74
2023/07/10 07:47:32;;;;;;;8.57;3.90;;;;;;;;;;6265259;28;20463;-75
2023/07/10 07:50:32;;;;;;;5.07;3.83;;;;;;;;;;6268887;28;20541;-75
2023/07/10 07:53:33;;;;;;;5.70;3.80;;;;;;;;;;6267224;28;20017;-76
2023/07/10 07:56:34;;;;;;;7.95;3.50;;;;;;;;;;6270720;28;20546;-76
2023/07/10 07:59:34;;;;;;;5.78;2.90;;;;;;;;;;6270788;28;20096;-76
2023/07/10 08:02:35;;;;;;;4.88;3.45;;;;;;;;;;6271107;28;20471;-76
2023/07/10 08:05:35;;;;;;;6.10;3.80;;;;;;;;;;6252407;28;20043;-76
2023/07/10 08:08:35;;;;;;;8.07;3.80;;;;;;;;;;6248082;28;20086;-75
2023/07/10 08:11:35;;;;;;;5.97;3.28;;;;;;;;;;6270172;28;20036;-76
2023/07/10 08:14:36;;;;;;;4.50;3.30;;;;;;;;;;6270914;28;20029;-76
2023/07/10 08:17:36;;;;;;;6.88;3.20;;;;;;;;;;6261271;28;20492;-76
2023/07/10 08:20:36;;;;;;;6.65;2.75;;;;;;;;;;6263551;28;20059;-76
2023/07/10 08:23:36;;;;;;;6.33;3.70;;;;;;;;;;6271069;28;20024;-75
2023/07/10 08:26:37;;;;;;;6.53;3.77;;;;;;;;;;6270871;28;20048;-77
2023/07/10 08:29:37;;;;;;;6.55;3.10;;;;;;;;;;6270086;28;20434;-76
2023/07/10 08:32:37;;;;;;;7.17;3.57;;;;;;;;;;6270168;28;20024;-76
2023/07/10 08:35:37;;;;;;;5.90;4.25;;;;;;;;;;6269311;28;20153;-76
2023/07/10 08:38:38;;;;;;;5.10;3.37;;;;;;;;;;6269439;28;20142;-76
2023/07/10 08:41:41;;;;;;;4.67;3.00;;;;;;;;;;6250422;28;20407;-78
2023/07/10 08:44:42;;;;;;;4.10;3.22;;;;;;;;;;6265869;28;20622;-76
2023/07/10 08:47:44;;;;;;;5.68;3.13;;;;;;;;;;6269211;28;20029;-76
2023/07/10 08:50:47;;;;;;;4.82;2.92;;;;;;;;;;6269497;28;20051;-75
2023/07/10 08:53:59;;;;;;;4.28;2.92;;;;;;;;;;6241935;28;20013;-75
2023/07/10 08:57:18;;;;;;;5.82;2.53;;;;;;;;;;6269549;28;20021;-75
2023/07/10 09:00:19;;;;;;;8.35;4.15;;;;;;;;;;6269808;28;20028;-76
2023/07/10 09:03:31;;;;;;;5.72;3.33;;;;;;;;;;6266899;28;20780;-76
2023/07/10 09:06:36;;;;;;;6.55;3.10;;;;;;;;;;6267554;28;20112;-75
2023/07/10 09:09:37;;;;;;;6.00;2.78;;;;;;;;;;6251903;28;20036;-75
2023/07/10 09:12:41;;;;;;;5.78;3.08;;;;;;;;;;6268817;28;20025;-76
2023/07/10 09:15:51;;;;;;;5.10;3.20;;;;;;;;;;6266128;28;20786;-75
2023/07/10 09:19:06;;;;;;;4.80;2.83;;;;;;;;;;6269231;28;20029;-75
2023/07/10 09:22:09;;;;;;;5.80;3.00;;;;;;;;;;6269608;28;20550;-75
2023/07/10 09:25:13;;;;;;;7.55;2.70;;;;;;;;;;6269707;28;20024;-75
2023/07/10 09:28:13;;;;;;;3.88;2.40;;;;;;;;;;6269011;28;20487;-75
2023/07/10 09:31:33;;;;;;;2.58;2.00;;;;;;;;;;6269684;28;20064;-75
2023/07/10 09:34:34;;;;;;;5.65;2.65;;;;;;;;;;6269852;28;20088;-75
2023/07/10 09:37:35;;;;;;;6.15;2.42;;;;;;;;;;6269010;28;20554;-75
2023/07/10 09:40:46;;;;;;;3.47;2.47;;;;;;;;;;6264869;28;20025;-76
2023/07/10 09:43:52;;;;;;;6.68;2.90;;;;;;;;;;6252677;28;20115;-76
2023/07/10 09:46:58;;;;;;;6.05;2.50;;;;;;;;;;6268786;28;20701;-75
2023/07/10 09:50:00;;;;;;;3.88;2.67;;;;;;;;;;6249735;28;20048;-76
2023/07/10 09:53:01;;;;;;;5.25;3.08;;;;;;;;;;6248224;28;20024;-77
2023/07/10 09:56:01;;;;;;;5.40;2.97;;;;;;;;;;6265957;28;20017;-76
2023/07/10 09:59:12;;;;;;;5.20;3.37;;;;;;;;;;6257154;28;20044;-76
2023/07/10 10:02:17;;;;;;;4.72;2.50;;;;;;;;;;6264537;28;20607;-76
2023/07/10 10:05:19;;;;;;;7.20;2.83;;;;;;;;;;6264471;28;20021;-76
2023/07/10 10:08:27;;;;;;;5.75;3.35;;;;;;;;;;6252757;28;20021;-76
2023/07/10 10:11:35;;;;;;;4.57;2.85;;;;;;;;;;6270232;28;20037;-77
2023/07/10 10:14:43;;;;;;;8.02;3.13;;;;;;;;;;6270457;28;20044;-88
2023/07/10 10:17:44;;;;;;;5.60;3.00;;;;;;;;;;6270629;28;20031;-87
2023/07/10 10:20:44;;;;;;;5.13;3.00;;;;;;;;;;6265426;28;20072;-85
2023/07/10 10:23:46;;;;;;;6.20;3.13;;;;;;;;;;6268103;28;20094;-85
2023/07/10 10:26:53;;;;;;;6.03;3.20;;;;;;;;;;6270050;28;20060;-87
2023/07/10 10:30:11;;;;;;;5.70;2.92;;;;;;;;;;6268547;28;20028;-85
2023/07/10 10:33:12;;;;;;;3.10;2.30;;;;;;;;;;6268274;28;20024;-86
2023/07/10 10:36:24;;;;;;;5.95;3.03;;;;;;;;;;6268953;28;20017;-85
2023/07/10 10:39:37;;;;;;;3.80;3.17;;;;;;;;;;6268190;28;20103;-87
2023/07/10 10:42:43;;;;;;;5.55;2.72;;;;;;;;;;6268082;28;20480;-87
2023/07/10 10:45:49;;;;;;;4.45;2.80;;;;;;;;;;6263967;28;20143;-86
2023/07/10 10:48:49;;;;;;;6.22;2.90;;;;;;;;;;6265712;28;20079;-83
2023/07/10 10:51:59;;;;;;;8.98;3.38;;;;;;;;;;6261052;28;20029;-87
2023/07/10 10:55:17;;;;;;;6.63;3.10;;;;;;;;;;6259127;28;20033;-84
2023/07/10 10:58:30;;;;;;;3.20;2.42;;;;;;;;;;6264854;28;20014;-84
2023/07/10 11:01:32;;;;;;;7.07;3.10;;;;;;;;;;6262101;28;20025;-84
2023/07/10 11:04:37;;;;;;;3.33;2.70;;;;;;;;;;6264310;28;20108;-85
2023/07/10 11:07:39;;;;;;;5.70;2.90;;;;;;;;;;6267474;28;20104;-87
2023/07/10 11:10:42;;;;;;;4.35;2.90;;;;;;;;;;6267333;28;20025;-86
2023/07/10 11:13:43;;;;;;;7.28;3.17;;;;;;;;;;6261752;28;20015;-87
2023/07/10 11:16:43;;;;;;;5.83;2.80;;;;;;;;;;6267850;28;20025;-86
2023/07/10 11:19:43;;;;;;;5.15;2.90;;;;;;;;;;6267874;28;20282;-84
2023/07/10 11:22:51;;;;;;;9.82;3.17;;;;;;;;;;6260155;28;20021;-86
2023/07/10 11:25:57;;;;;;;4.38;2.97;;;;;;;;;;6263440;28;20031;-85
2023/07/10 11:28:58;;;;;;;6.53;3.17;;;;;;;;;;6263744;28;20021;-83
2023/07/10 11:31:59;;;;;;;5.35;3.20;;;;;;;;;;6264652;28;20056;-85
2023/07/10 11:35:20;;;;;;;5.80;3.47;;;;;;;;;;6267861;28;20052;-86
2023/07/10 11:38:20;;;;;;;;;;;;;;;;;;6267567;28;20052;-85
2023/07/10 11:41:30;;;;;;;8.33;4.30;;;;;;;;;;6267727;28;19947;-85
2023/07/10 11:44:40;;;;;;;9.30;3.67;;;;;;;;;;6264155;28;20395;-85
2023/07/10 11:47:43;;;;;;;5.47;3.42;;;;;;;;;;6267122;28;20723;-84
2023/07/10 11:50:43;;;;;;;4.32;3.00;;;;;;;;;;6265464;28;20029;-87
2023/07/10 11:53:44;;;;;;;7.80;3.20;;;;;;;;;;6267253;28;20017;-87
2023/07/10 11:57:19;;;;;;;6.45;3.28;;;;;;;;;;6262497;28;20507;-87
2023/07/10 12:00:23;;;;;;;10.23;3.78;;;;;;;;;;6164831;28;20482;-87
2023/07/10 12:03:23;;;;;;;8.77;3.97;;;;;;;;;;6263510;28;20083;-87
2023/07/10 12:06:25;;;;;;;5.53;3.40;;;;;;;;;;6266317;28;20068;-86
2023/07/10 12:09:25;;;;;;;7.18;3.85;;;;;;;;;;6261016;28;20037;-83
2023/07/10 12:12:32;;;;;;;7.18;3.80;;;;;;;;;;6268997;28;20043;-84
2023/07/10 12:15:35;;;;;;;6.82;4.63;;;;;;;;;;6271347;28;20025;-84
2023/07/10 12:18:38;;;;;;;7.38;3.95;;;;;;;;;;6253437;28;20071;-86
2023/07/10 12:21:38;;;;;;;8.10;4.05;;;;;;;;;;6268301;28;21285;-87
2023/07/10 12:24:45;;;;;;;5.63;3.70;;;;;;;;;;6234963;28;20044;-83
2023/07/10 12:27:45;;;;;;;8.45;4.97;;;;;;;;;;6259886;28;20018;-87
2023/07/10 12:30:48;;;;;;;12.50;5.20;;;;;;;;;;6265976;28;20474;-84
2023/07/10 12:33:50;;;;;;;6.85;4.32;;;;;;;;;;6270221;28;20013;-86
2023/07/10 12:36:51;;;;;;;9.65;4.90;;;;;;;;;;6270697;28;20379;-86
2023/07/10 12:39:51;;;;;;;7.82;4.38;;;;;;;;;;6271345;28;20017;-84
2023/07/10 12:42:52;;;;;;;11.00;4.55;;;;;;;;;;6275715;28;20439;-84
2023/07/10 12:46:29;;;;;;;9.67;4.63;;;;;;;;;;6275004;28;20071;-85
2023/07/10 12:49:32;;;;;;;11.30;4.88;;;;;;;;;;6175625;28;20023;-85
2023/07/10 12:52:35;;;;;;;9.75;4.57;;;;;;;;;;6271436;28;20049;-85
2023/07/10 12:55:36;;;;;;;7.60;4.63;;;;;;;;;;6273289;28;20024;-86
2023/07/10 12:58:37;;;;;;;;;;;;;;;;;;6272533;28;20017;-85
2023/07/10 13:01:37;;;;;;;7.77;4.80;;;;;;;;;;6253611;28;20480;-86
2023/07/10 13:04:37;;;;;;;;;;;;;;;;;;6270196;28;20033;-84
2023/07/10 13:07:39;;;;;;;9.32;4.90;;;;;;;;;;6272947;28;20003;-84
2023/07/10 13:10:41;;;;;;;12.32;5.53;;;;;;;;;;6274492;28;20017;-83
2023/07/10 13:13:42;;;;;;;7.45;5.38;;;;;;;;;;6272607;28;20013;-82
2023/07/10 13:16:44;;;;;;;7.30;5.03;;;;;;;;;;6273882;28;20091;-85
2023/07/10 13:19:44;;;;;;;13.70;5.97;;;;;;;;;;6270454;28;20154;-86
2023/07/10 13:22:44;;;;;;;9.73;5.40;;;;;;;;;;6270517;28;20021;-85
2023/07/10 13:25:45;;;;;;;6.65;5.43;;;;;;;;;;6269723;28;20558;-84
2023/07/10 13:28:45;;;;;;;14.33;5.67;;;;;;;;;;6272404;28;20107;-85
2023/07/10 13:31:46;;;;;;;10.18;4.95;;;;;;;;;;6273812;28;20075;-87
2023/07/10 13:34:46;;;;;;;10.27;5.70;;;;;;;;;;6276575;28;20057;-86
2023/07/10 13:37:46;;;;;;;9.67;5.10;;;;;;;;;;6255922;28;20163;-87
2023/07/10 13:40:46;;;;;;;7.32;4.70;;;;;;;;;;6272646;28;20045;-85
2023/07/10 13:43:47;;;;;;;7.43;4.87;;;;;;;;;;6270450;28;20115;-76
2023/07/10 13:46:47;;;;;;;7.78;4.72;;;;;;;;;;6268685;28;20112;-76
2023/07/10 13:49:48;;;;;;;6.95;5.15;;;;;;;;;;6269606;28;20035;-76
2023/07/10 13:52:48;;;;;;;10.07;5.53;;;;;;;;;;6268231;28;20017;-75
2023/07/10 13:55:49;;;;;;;9.13;4.57;;;;;;;;;;6265395;28;20489;-76
2023/07/10 13:58:50;;;;;;;10.07;4.75;;;;;;;;;;6268072;28;20016;-76
2023/07/10 14:01:50;;;;;;;9.32;5.35;;;;;;;;;;6268206;28;20431;-76
2023/07/10 14:04:50;;;;;;;8.20;5.60;;;;;;;;;;6268431;28;20027;-75
2023/07/10 14:07:51;;;;;;;8.87;5.07;;;;;;;;;;6250502;28;20256;-75
2023/07/10 14:10:51;;;;;;;7.83;4.87;;;;;;;;;;6268100;28;20310;-75
2023/07/10 14:13:52;;;;;;;9.50;5.27;;;;;;;;;;6269540;28;20015;-86
2023/07/10 14:16:52;;;;;;;7.75;5.28;;;;;;;;;;6271604;28;20339;-85
2023/07/10 14:19:53;;;;;;;8.07;4.60;;;;;;;;;;6258308;28;20041;-85
2023/07/10 14:22:53;;;;;;;6.85;4.93;;;;;;;;;;6236271;28;20033;-84
2023/07/10 14:25:54;;;;;;;7.28;5.38;;;;;;;;;;6242542;28;20047;-85
2023/07/10 14:28:58;;;;;;;12.77;5.25;;;;;;;;;;6251246;28;20029;-86
2023/07/10 14:31:59;;;;;;;6.75;4.95;;;;;;;;;;6244825;28;20068;-83
2023/07/10 14:34:59;;;;;;;8.00;5.65;;;;;;;;;;6244378;28;20022;-85
2023/07/10 14:37:59;;;;;;;10.65;4.70;;;;;;;;;;6241671;28;20029;-84
2023/07/10 14:41:00;;;;;;;8.38;5.20;;;;;;;;;;6241498;28;20022;-85
2023/07/10 14:44:00;;;;;;;9.50;6.37;;;;;;;;;;6245508;28;20026;-84
2023/07/10 14:47:00;;;;;;;11.10;5.40;;;;;;;;;;6239906;28;20021;-82
2023/07/10 14:50:02;;;;;;;9.43;6.28;;;;;;;;;;6244855;28;20021;-86
2023/07/10 14:53:14;;;;;;;8.48;5.90;;;;;;;;;;6228396;28;20507;-83
2023/07/10 14:56:15;;;;;;;13.63;7.40;;;;;;;;;;6240055;28;20049;-85
2023/07/10 14:59:15;;;;;;;15.32;10.10;;;;;;;;;;6242582;28;20018;-84
2023/07/10 15:02:16;;;;;;;;;;;;;;;;;;6242911;28;20088;-84
2023/07/10 15:05:16;;;;;;;13.25;8.82;;;;;;;;;;6242420;28;19910;-85
2023/07/10 15:08:16;;;;;;;;;;;;;;;;;;6244305;28;20083;-87
2023/07/10 15:11:16;;;;;;;9.70;6.68;;;;;;;;;;6247985;28;19916;-85
2023/07/10 15:14:16;;;;;;;;;;;;;;;;;;6241763;28;20025;-85
2023/07/10 15:17:18;;;;;;;9.88;5.78;;;;;;;;;;6220827;28;19916;-85
2023/07/10 15:20:19;;;;;;;11.30;5.40;;;;;;;;;;6266108;28;20083;-83
2023/07/10 15:23:21;;;;;;;12.10;5.57;;;;;;;;;;6269636;28;20463;-75
2023/07/10 15:26:21;;;;;;;12.00;5.75;;;;;;;;;;6266591;28;20021;-75
2023/07/10 15:29:22;;;;;;;;;;;;;;;;;;6262843;28;20052;-75
2023/07/10 15:32:22;;;;;;;11.68;6.68;;;;;;;;;;6266657;28;19924;-75
2023/07/10 15:35:24;;;;;;;17.20;7.90;;;;;;;;;;6266964;28;20376;-76
2023/07/10 15:38:27;;;;;;;13.00;6.20;;;;;;;;;;6267394;28;20049;-75
2023/07/10 15:41:28;;;;;;;10.70;6.22;;;;;;;;;;6255042;28;20574;-76
2023/07/10 15:44:30;;;;;;;10.27;6.72;;;;;;;;;;6261137;28;20053;-75
2023/07/10 15:47:30;;;;;;;10.38;6.05;;;;;;;;;;6271026;28;20025;-76
2023/07/10 15:50:31;;;;;;;;;;;;;;;;;;6247199;28;20040;-75
2023/07/10 15:53:31;;;;;;;10.65;5.40;;;;;;;;;;6269341;28;19912;-75
2023/07/10 15:56:31;;;;;;;;;;;;;;;;;;6270143;28;20021;-75
2023/07/10 15:59:31;;;;;;;9.05;5.35;;;;;;;;;;6267604;28;19908;-76
2023/07/10 16:02:31;;;;;;;;;;;;;;;;;;6260581;28;20029;-84
2023/07/10 16:05:32;;;;;;;9.25;4.88;;;;;;;;;;6273875;28;19915;-83
2023/07/10 16:08:34;;;;;;;;;;;;;;;;;;6279446;28;20029;-81
2023/07/10 16:11:34;;;;;;;9.77;5.25;;;;;;;;;;6277678;28;19908;-84
2023/07/10 16:14:35;;;;;;;8.37;4.17;;;;;;;;;;6277990;28;20020;-83
2023/07/10 16:17:36;;;;;;;11.25;5.40;;;;;;;;;;6282158;28;20007;-84
2023/07/10 16:20:36;;;;;;;9.32;5.47;;;;;;;;;;6276460;28;20135;-83
2023/07/10 16:23:36;;;;;;;11.17;5.77;;;;;;;;;;6286496;28;20044;-83
2023/07/10 16:26:36;;;;;;;10.50;4.20;;;;;;;;;;6281292;28;20043;-82
2023/07/10 16:29:37;;;;;;;11.18;5.03;;;;;;;;;;6276258;28;20081;-82
2023/07/10 16:32:37;;;;;;;9.53;4.93;;;;;;;;;;6282828;28;20036;-85
2023/07/10 16:35:38;;;;;;;8.27;5.57;;;;;;;;;;6283786;28;20277;-83
2023/07/10 16:38:38;;;;;;;8.57;5.25;;;;;;;;;;6278961;28;20036;-82
2023/07/10 16:41:39;;;;;;;11.87;5.27;;;;;;;;;;6280338;28;20029;-83
2023/07/10 16:44:43;;;;;;;11.53;4.70;;;;;;;;;;6280880;28;20120;-84
2023/07/10 16:47:43;;;;;;;15.48;5.28;;;;;;;;;;6288754;28;20048;-82
2023/07/10 16:50:44;;;;;;;15.03;6.57;;;;;;;;;;6289859;28;20021;-84
2023/07/10 16:53:45;;;;;;;9.32;4.90;;;;;;;;;;6292234;28;20105;-79
2023/07/10 16:56:46;;;;;;;6.37;4.30;;;;;;;;;;6292425;28;20017;-85
2023/07/10 16:59:46;;;;;;;;;;;;;;;;;;6291140;28;20056;-86
2023/07/10 17:02:55;;;;;;;9.02;5.82;;;;;;;;;;6295042;28;19904;-86
2023/07/10 17:05:55;;;;;;;7.88;4.72;;;;;;;;;;6292906;28;20369;-84
2023/07/10 17:08:55;;;;;;;11.20;4.93;;;;;;;;;;6286981;28;20029;-85
2023/07/10 17:11:56;;;;;;;6.67;4.00;;;;;;;;;;6285460;28;20473;-87
2023/07/10 17:14:56;;;;;;;8.40;4.30;;;;;;;;;;6285421;28;20359;-85
2023/07/10 17:17:56;;;;;;;5.97;4.00;;;;;;;;;;6288416;28;20073;-87
2023/07/10 17:20:57;;;;;;;6.03;4.15;;;;;;;;;;6304663;28;20071;-84
2023/07/10 17:23:58;;;;;;;9.38;4.60;;;;;;;;;;6270994;28;20045;-84
2023/07/10 17:26:59;;;;;;;9.43;3.72;;;;;;;;;;6299351;28;20048;-82
2023/07/10 17:29:59;;;;;;;8.70;4.57;;;;;;;;;;6286793;28;20092;-84
2023/07/10 17:32:59;;;;;;;9.43;6.27;;;;;;;;;;6277750;28;20033;-76
2023/07/10 17:35:59;;;;;;;6.43;4.03;;;;;;;;;;6271761;28;20024;-76
2023/07/10 17:38:59;;;;;;;7.53;4.20;;;;;;;;;;6268629;28;20107;-76
2023/07/10 17:42:00;;;;;;;11.80;4.87;;;;;;;;;;6265895;28;20033;-76
2023/07/10 17:45:00;;;;;;;10.93;5.17;;;;;;;;;;6254319;28;20370;-77
2023/07/10 17:48:01;;;;;;;8.40;4.47;;;;;;;;;;6273130;28;20468;-77
2023/07/10 17:51:04;;;;;;;8.63;4.43;;;;;;;;;;6274975;28;20032;-76
2023/07/10 17:54:16;;;;;;;9.48;4.55;;;;;;;;;;6271032;28;20024;-76
2023/07/10 17:57:18;;;;;;;9.77;4.68;;;;;;;;;;6264661;28;20028;-76
2023/07/10 18:00:19;;;;;;;9.63;4.80;;;;;;;;;;6274652;28;20485;-76
2023/07/10 18:03:21;;;;;;;9.27;4.60;;;;;;;;;;6266490;28;20091;-76
2023/07/10 18:06:22;;;;;;;8.52;4.78;;;;;;;;;;6260638;28;20104;-76
2023/07/10 18:09:28;;;;;;;7.38;4.13;;;;;;;;;;6265936;28;20399;-76
2023/07/10 18:12:28;;;;;;;9.82;4.72;;;;;;;;;;6243047;28;20029;-75